sensor_id;sensor_type;location;lat;lon;timestamp;pressure;altitude;pressure_sealevel;temperature;humidity
47815;BME280;33579;50.058;18.130;2023-09-19T00:00:39;98514.66;;;20.44;100.00
47815;BME280;33579;50.058;18.130;2023-09-19T00:01:41;98511.78;;;20.45;100.00
47815;BME280;33579;50.058;18.130;2023-09-19T00:02:42;98510.16;;;20.44;100.00
47815;BME280;33579;50.058;18.130;2023-09-19T00:03:44;98513.63;;;20.45;100.00
47815;BME280;33579;50.058;18.130;2023-09-19T00:04:46;98515.06;;;20.47;100.00
47815;BME280;33579;50.058;18.130;2023-09-19T00:05:48;98505.38;;;20.53;100.00
47815;BME280;33579;50.058;18.130;2023-09-19T00:06:49;98509.88;;;20.53;100.00
47815;BME280;33579;50.058;18.130;2023-09-19T00:07:51;98513.38;;;20.53;100.00
47815;BME280;33579;50.058;18.130;2023-09-19T00:08:54;98506.19;;;20.54;100.00
47815;BME280;33579;50.058;18.130;2023-09-19T00:09:55;98499.44;;;20.51;100.00
47815;BME280;33579;50.058;18.130;2023-09-19T00:10:57;98499.63;;;20.49;100.00
47815;BME280;33579;50.058;18.130;2023-09-19T00:11:59;98499.03;;;20.47;100.00
47815;BME280;33579;50.058;18.130;2023-09-19T00:13:04;98496.97;;;20.49;100.00
47815;BME280;33579;50.058;18.130;2023-09-19T00:14:06;98496.75;;;20.51;100.00
47815;BME280;33579;50.058;18.130;2023-09-19T00:15:07;98497.44;;;20.40;100.00
47815;BME280;33579;50.058;18.130;2023-09-19T00:16:10;98501.88;;;20.20;100.00
47815;BME280;33579;50.058;18.130;2023-09-19T00:17:13;98504.19;;;20.10;100.00
47815;BME280;33579;50.058;18.130;2023-09-19T00:18:15;98503.78;;;20.06;100.00
47815;BME280;33579;50.058;18.130;2023-09-19T00:19:17;98503.41;;;19.96;100.00
47815;BME280;33579;50.058;18.130;2023-09-19T00:20:18;98500.97;;;19.81;100.00
47815;BME280;33579;50.058;18.130;2023-09-19T00:21:20;98504.69;;;19.73;100.00
47815;BME280;33579;50.058;18.130;2023-09-19T00:22:22;98506.31;;;19.74;100.00
47815;BME280;33579;50.058;18.130;2023-09-19T00:23:23;98501.22;;;19.73;100.00
47815;BME280;33579;50.058;18.130;2023-09-19T00:24:25;98499.19;;;19.61;100.00
47815;BME280;33579;50.058;18.130;2023-09-19T00:25:26;98492.44;;;19.59;100.00
47815;BME280;33579;50.058;18.130;2023-09-19T00:26:28;98497.31;;;19.69;100.00
47815;BME280;33579;50.058;18.130;2023-09-19T00:27:30;98502.03;;;19.66;100.00
47815;BME280;33579;50.058;18.130;2023-09-19T00:28:32;98495.31;;;19.64;100.00
47815;BME280;33579;50.058;18.130;2023-09-19T00:29:34;98498.78;;;19.64;100.00
47815;BME280;33579;50.058;18.130;2023-09-19T00:30:35;98493.22;;;19.73;100.00
47815;BME280;33579;50.058;18.130;2023-09-19T00:31:37;98495.84;;;19.86;100.00
47815;BME280;33579;50.058;18.130;2023-09-19T00:32:39;98496.63;;;19.93;100.00
47815;BME280;33579;50.058;18.130;2023-09-19T00:33:41;98498.66;;;19.98;100.00
47815;BME280;33579;50.058;18.130;2023-09-19T00:34:43;98497.84;;;20.04;100.00
47815;BME280;33579;50.058;18.130;2023-09-19T00:35:49;98500.91;;;20.08;100.00
47815;BME280;33579;50.058;18.130;2023-09-19T00:36:51;98497.59;;;20.13;100.00
47815;BME280;33579;50.058;18.130;2023-09-19T00:37:53;98500.59;;;20.23;100.00
47815;BME280;33579;50.058;18.130;2023-09-19T00:38:55;98498.13;;;20.28;100.00
47815;BME280;33579;50.058;18.130;2023-09-19T00:39:56;98501.22;;;20.25;100.00
47815;BME280;33579;50.058;18.130;2023-09-19T00:40:58;98490.75;;;20.24;100.00
47815;BME280;33579;50.058;18.130;2023-09-19T00:42:01;98494.03;;;20.26;100.00
47815;BME280;33579;50.058;18.130;2023-09-19T00:43:03;98490.13;;;20.28;100.00
47815;BME280;33579;50.058;18.130;2023-09-19T00:44:05;98489.88;;;20.30;100.00
47815;BME280;33579;50.058;18.130;2023-09-19T00:45:08;98487.00;;;20.31;100.00
47815;BME280;33579;50.058;18.130;2023-09-19T00:46:10;98495.03;;;20.31;100.00
47815;BME280;33579;50.058;18.130;2023-09-19T00:47:12;98487.22;;;20.30;100.00
47815;BME280;33579;50.058;18.130;2023-09-19T00:48:17;98490.72;;;20.30;100.00
47815;BME280;33579;50.058;18.130;2023-09-19T00:49:20;98493.38;;;20.30;100.00
47815;BME280;33579;50.058;18.130;2023-09-19T00:50:24;98488.03;;;20.30;100.00
47815;BME280;33579;50.058;18.130;2023-09-19T00:51:26;98495.63;;;20.33;100.00
47815;BME280;33579;50.058;18.130;2023-09-19T00:52:28;98488.63;;;20.32;100.00
47815;BME280;33579;50.058;18.130;2023-09-19T00:53:30;98491.50;;;20.31;100.00
47815;BME280;33579;50.058;18.130;2023-09-19T00:54:33;98481.66;;;20.31;100.00
47815;BME280;33579;50.058;18.130;2023-09-19T00:55:36;98483.09;;;20.34;100.00
47815;BME280;33579;50.058;18.130;2023-09-19T00:56:38;98483.09;;;20.34;100.00
47815;BME280;33579;50.058;18.130;2023-09-19T00:57:41;98481.63;;;20.38;100.00
47815;BME280;33579;50.058;18.130;2023-09-19T00:58:43;98482.06;;;20.35;100.00
47815;BME280;33579;50.058;18.130;2023-09-19T00:59:45;98480.81;;;20.38;100.00
47815;BME280;33579;50.058;18.130;2023-09-19T01:00:48;98479.09;;;20.43;100.00
47815;BME280;33579;50.058;18.130;2023-09-19T01:01:51;98475.19;;;20.46;100.00
47815;BME280;33579;50.058;18.130;2023-09-19T01:02:53;98471.28;;;20.48;100.00
47815;BME280;33579;50.058;18.130;2023-09-19T01:03:56;98479.75;;;20.45;100.00
47815;BME280;33579;50.058;18.130;2023-09-19T01:04:58;98468.22;;;20.45;100.00
47815;BME280;33579;50.058;18.130;2023-09-19T01:06:00;98474.41;;;20.45;100.00
47815;BME280;33579;50.058;18.130;2023-09-19T01:07:02;98470.69;;;20.46;100.00
47815;BME280;33579;50.058;18.130;2023-09-19T01:08:04;98471.28;;;20.48;100.00
47815;BME280;33579;50.058;18.130;2023-09-19T01:09:05;98472.09;;;20.49;100.00
47815;BME280;33579;50.058;18.130;2023-09-19T01:10:09;98473.75;;;20.50;100.00
47815;BME280;33579;50.058;18.130;2023-09-19T01:11:37;98470.84;;;20.52;100.00
47815;BME280;33579;50.058;18.130;2023-09-19T01:14:18;98470.44;;;20.48;100.00
47815;BME280;33579;50.058;18.130;2023-09-19T01:15:40;98466.53;;;20.50;100.00
47815;BME280;33579;50.058;18.130;2023-09-19T01:16:53;98467.38;;;20.51;100.00
47815;BME280;33579;50.058;18.130;2023-09-19T01:18:27;98458.72;;;20.49;100.00
47815;BME280;33579;50.058;18.130;2023-09-19T01:22:11;98454.91;;;20.38;100.00
47815;BME280;33579;50.058;18.130;2023-09-19T01:29:00;98454.47;;;20.09;100.00
47815;BME280;33579;50.058;18.130;2023-09-19T01:30:14;98459.22;;;20.07;100.00
47815;BME280;33579;50.058;18.130;2023-09-19T01:31:19;98460.25;;;19.99;100.00
47815;BME280;33579;50.058;18.130;2023-09-19T01:32:23;98456.41;;;19.95;100.00
47815;BME280;33579;50.058;18.130;2023-09-19T01:33:25;98460.50;;;19.98;100.00
47815;BME280;33579;50.058;18.130;2023-09-19T01:34:27;98458.47;;;19.93;100.00
47815;BME280;33579;50.058;18.130;2023-09-19T01:35:28;98458.03;;;19.96;100.00
47815;BME280;33579;50.058;18.130;2023-09-19T01:36:34;98453.25;;;20.05;100.00
47815;BME280;33579;50.058;18.130;2023-09-19T01:37:36;98462.66;;;20.14;100.00
47815;BME280;33579;50.058;18.130;2023-09-19T01:38:38;98454.84;;;20.19;100.00
47815;BME280;33579;50.058;18.130;2023-09-19T01:39:40;98457.66;;;20.25;100.00
47815;BME280;33579;50.058;18.130;2023-09-19T01:40:43;98456.44;;;20.27;100.00
47815;BME280;33579;50.058;18.130;2023-09-19T01:42:09;98462.13;;;20.31;100.00
47815;BME280;33579;50.058;18.130;2023-09-19T01:43:25;98453.13;;;20.32;100.00
47815;BME280;33579;50.058;18.130;2023-09-19T01:46:09;98460.91;;;20.33;100.00
47815;BME280;33579;50.058;18.130;2023-09-19T01:47:46;98465.44;;;20.33;100.00
47815;BME280;33579;50.058;18.130;2023-09-19T01:51:19;98466.25;;;20.33;100.00
47815;BME280;33579;50.058;18.130;2023-09-19T01:52:23;98469.13;;;20.32;100.00
47815;BME280;33579;50.058;18.130;2023-09-19T01:53:56;98469.94;;;20.32;100.00
47815;BME280;33579;50.058;18.130;2023-09-19T01:55:08;98473.00;;;20.36;100.00
47815;BME280;33579;50.058;18.130;2023-09-19T01:56:17;98466.19;;;20.40;100.00
47815;BME280;33579;50.058;18.130;2023-09-19T01:57:26;98469.66;;;20.47;100.00
47815;BME280;33579;50.058;18.130;2023-09-19T01:58:34;98474.56;;;20.50;100.00
47815;BME280;33579;50.058;18.130;2023-09-19T01:59:43;98475.38;;;20.51;100.00
47815;BME280;33579;50.058;18.130;2023-09-19T02:00:48;98472.47;;;20.53;100.00
47815;BME280;33579;50.058;18.130;2023-09-19T02:01:51;98469.81;;;20.53;100.00
47815;BME280;33579;50.058;18.130;2023-09-19T02:02:54;98472.03;;;20.56;100.00
47815;BME280;33579;50.058;18.130;2023-09-19T02:03:56;98477.63;;;20.54;100.00
47815;BME280;33579;50.058;18.130;2023-09-19T02:04:58;98473.91;;;20.55;100.00
47815;BME280;33579;50.058;18.130;2023-09-19T02:06:01;98475.34;;;20.58;100.00
47815;BME280;33579;50.058;18.130;2023-09-19T02:07:03;98477.56;;;20.61;100.00
47815;BME280;33579;50.058;18.130;2023-09-19T02:08:05;98481.88;;;20.62;100.00
47815;BME280;33579;50.058;18.130;2023-09-19T02:09:07;98478.22;;;20.56;100.00
47815;BME280;33579;50.058;18.130;2023-09-19T02:10:08;98475.16;;;20.53;100.00
47815;BME280;33579;50.058;18.130;2023-09-19T02:11:11;98474.56;;;20.50;100.00
47815;BME280;33579;50.058;18.130;2023-09-19T02:12:13;98477.44;;;20.49;100.00
47815;BME280;33579;50.058;18.130;2023-09-19T02:13:21;98474.34;;;20.52;100.00
47815;BME280;33579;50.058;18.130;2023-09-19T02:14:23;98471.69;;;20.52;100.00
47815;BME280;33579;50.058;18.130;2023-09-19T02:15:25;98477.38;;;20.56;100.00
47815;BME280;33579;50.058;18.130;2023-09-19T02:16:26;98481.47;;;20.58;100.00
47815;BME280;33579;50.058;18.130;2023-09-19T02:17:28;98483.72;;;20.61;100.00
47815;BME280;33579;50.058;18.130;2023-09-19T02:18:30;98483.34;;;20.58;100.00
47815;BME280;33579;50.058;18.130;2023-09-19T02:19:32;98484.81;;;20.54;100.00
47815;BME280;33579;50.058;18.130;2023-09-19T02:20:34;98477.22;;;20.50;100.00
47815;BME280;33579;50.058;18.130;2023-09-19T02:21:36;98484.03;;;20.46;100.00
47815;BME280;33579;50.058;18.130;2023-09-19T02:22:37;98471.09;;;20.43;100.00
47815;BME280;33579;50.058;18.130;2023-09-19T02:23:39;98474.66;;;20.37;100.00
47815;BME280;33579;50.058;18.130;2023-09-19T02:24:41;98474.03;;;20.35;100.00
47815;BME280;33579;50.058;18.130;2023-09-19T02:25:51;98467.47;;;20.38;100.00
47815;BME280;33579;50.058;18.130;2023-09-19T02:26:53;98473.16;;;20.41;100.00
47815;BME280;33579;50.058;18.130;2023-09-19T02:27:55;98472.13;;;20.42;100.00
47815;BME280;33579;50.058;18.130;2023-09-19T02:28:57;98472.38;;;20.41;100.00
47815;BME280;33579;50.058;18.130;2023-09-19T02:29:59;98466.78;;;20.42;100.00
47815;BME280;33579;50.058;18.130;2023-09-19T02:31:01;98466.59;;;20.44;100.00
47815;BME280;33579;50.058;18.130;2023-09-19T02:32:03;98462.28;;;20.43;100.00
47815;BME280;33579;50.058;18.130;2023-09-19T02:33:06;98471.50;;;20.47;100.00
47815;BME280;33579;50.058;18.130;2023-09-19T02:34:07;98467.81;;;20.41;100.00
47815;BME280;33579;50.058;18.130;2023-09-19T02:35:09;98466.19;;;20.40;100.00
47815;BME280;33579;50.058;18.130;2023-09-19T02:36:11;98464.16;;;20.35;100.00
47815;BME280;33579;50.058;18.130;2023-09-19T02:37:13;98466.84;;;20.35;100.00
47815;BME280;33579;50.058;18.130;2023-09-19T02:38:15;98467.66;;;20.36;100.00
47815;BME280;33579;50.058;18.130;2023-09-19T02:39:16;98465.38;;;20.40;100.00
47815;BME280;33579;50.058;18.130;2023-09-19T02:40:19;98468.66;;;20.42;100.00
47815;BME280;33579;50.058;18.130;2023-09-19T02:41:21;98463.72;;;20.45;100.00
47815;BME280;33579;50.058;18.130;2023-09-19T02:42:23;98466.78;;;20.42;100.00
47815;BME280;33579;50.058;18.130;2023-09-19T02:43:24;98466.00;;;20.42;100.00
47815;BME280;33579;50.058;18.130;2023-09-19T02:44:26;98463.09;;;20.43;100.00
47815;BME280;33579;50.058;18.130;2023-09-19T02:45:28;98461.84;;;20.46;100.00
47815;BME280;33579;50.058;18.130;2023-09-19T02:46:30;98458.56;;;20.44;100.00
47815;BME280;33579;50.058;18.130;2023-09-19T02:47:32;98459.59;;;20.43;100.00
47815;BME280;33579;50.058;18.130;2023-09-19T02:48:35;98458.19;;;20.40;100.00
47815;BME280;33579;50.058;18.130;2023-09-19T02:49:36;98451.84;;;20.34;100.00
47815;BME280;33579;50.058;18.130;2023-09-19T02:50:38;98453.72;;;20.34;100.00
47815;BME280;33579;50.058;18.130;2023-09-19T02:51:40;98444.13;;;20.26;100.00
47815;BME280;33579;50.058;18.130;2023-09-19T02:52:43;98440.00;;;20.24;100.00
47815;BME280;33579;50.058;18.130;2023-09-19T02:53:45;98442.69;;;20.24;100.00
47815;BME280;33579;50.058;18.130;2023-09-19T02:54:47;98443.06;;;20.27;100.00
47815;BME280;33579;50.058;18.130;2023-09-19T02:55:48;98444.47;;;20.30;100.00
47815;BME280;33579;50.058;18.130;2023-09-19T02:56:50;98437.28;;;20.30;100.00
47815;BME280;33579;50.058;18.130;2023-09-19T02:57:53;98446.09;;;20.31;100.00
47815;BME280;33579;50.058;18.130;2023-09-19T02:58:55;98441.44;;;20.26;100.00
47815;BME280;33579;50.058;18.130;2023-09-19T02:59:57;98436.69;;;20.28;100.00
47815;BME280;33579;50.058;18.130;2023-09-19T03:00:58;98446.50;;;20.34;100.00
47815;BME280;33579;50.058;18.130;2023-09-19T03:02:01;98444.66;;;20.35;100.00
47815;BME280;33579;50.058;18.130;2023-09-19T03:03:03;98444.44;;;20.36;100.00
47815;BME280;33579;50.058;18.130;2023-09-19T03:04:06;98444.81;;;20.40;100.00
47815;BME280;33579;50.058;18.130;2023-09-19T03:05:09;98446.47;;;20.41;100.00
47815;BME280;33579;50.058;18.130;2023-09-19T03:06:11;98461.44;;;20.42;100.00
47815;BME280;33579;50.058;18.130;2023-09-19T03:07:13;98461.84;;;20.46;100.00
47815;BME280;33579;50.058;18.130;2023-09-19T03:08:14;98454.66;;;20.46;100.00
47815;BME280;33579;50.058;18.130;2023-09-19T03:09:16;98459.59;;;20.43;100.00
47815;BME280;33579;50.058;18.130;2023-09-19T03:10:21;98455.50;;;20.40;100.00
47815;BME280;33579;50.058;18.130;2023-09-19T03:11:23;98455.50;;;20.40;100.00
47815;BME280;33579;50.058;18.130;2023-09-19T03:12:27;98453.44;;;20.42;100.00
47815;BME280;33579;50.058;18.130;2023-09-19T03:13:29;98450.56;;;20.44;100.00
47815;BME280;33579;50.058;18.130;2023-09-19T03:14:34;98458.56;;;20.44;100.00
47815;BME280;33579;50.058;18.130;2023-09-19T03:15:41;98457.09;;;20.48;100.00
47815;BME280;33579;50.058;18.130;2023-09-19T03:16:43;98453.88;;;20.39;100.00
47815;BME280;33579;50.058;18.130;2023-09-19T03:17:47;98459.84;;;20.34;100.00
47815;BME280;33579;50.058;18.130;2023-09-19T03:18:53;98457.22;;;20.28;100.00
47815;BME280;33579;50.058;18.130;2023-09-19T03:19:56;98464.44;;;20.27;100.00
47815;BME280;33579;50.058;18.130;2023-09-19T03:20:58;98465.25;;;20.28;100.00
47815;BME280;33579;50.058;18.130;2023-09-19T03:22:00;98463.44;;;20.21;100.00
47815;BME280;33579;50.058;18.130;2023-09-19T03:23:02;98473.38;;;20.07;100.00
47815;BME280;33579;50.058;18.130;2023-09-19T03:24:04;98469.09;;;20.00;100.00
47815;BME280;33579;50.058;18.130;2023-09-19T03:25:07;98471.19;;;19.91;100.00
47815;BME280;33579;50.058;18.130;2023-09-19T03:26:13;98471.81;;;19.86;100.00
47815;BME280;33579;50.058;18.130;2023-09-19T03:27:15;98475.28;;;19.87;100.00
47815;BME280;33579;50.058;18.130;2023-09-19T03:28:17;98475.72;;;19.84;100.00
47815;BME280;33579;50.058;18.130;2023-09-19T03:29:19;98476.53;;;19.84;100.00
47815;BME280;33579;50.058;18.130;2023-09-19T03:30:20;98473.44;;;19.87;100.00
47815;BME280;33579;50.058;18.130;2023-09-19T03:31:22;98472.41;;;19.88;100.00
47815;BME280;33579;50.058;18.130;2023-09-19T03:32:24;98471.22;;;19.84;100.00
47815;BME280;33579;50.058;18.130;2023-09-19T03:33:26;98472.63;;;19.80;100.00
47815;BME280;33579;50.058;18.130;2023-09-19T03:34:28;98471.41;;;19.83;100.00
47815;BME280;33579;50.058;18.130;2023-09-19T03:35:30;98464.81;;;19.92;100.00
47815;BME280;33579;50.058;18.130;2023-09-19T03:36:35;98471.78;;;20.00;100.00
47815;BME280;33579;50.058;18.130;2023-09-19T03:37:36;98475.00;;;20.08;100.00
47815;BME280;33579;50.058;18.130;2023-09-19T03:38:39;98463.69;;;20.13;100.00
47815;BME280;33579;50.058;18.130;2023-09-19T03:39:41;98466.16;;;20.15;100.00
47815;BME280;33579;50.058;18.130;2023-09-19T03:40:43;98459.16;;;20.20;100.00
47815;BME280;33579;50.058;18.130;2023-09-19T03:41:45;98473.69;;;20.25;100.00
47815;BME280;33579;50.058;18.130;2023-09-19T03:42:47;98466.06;;;20.28;100.00
47815;BME280;33579;50.058;18.130;2023-09-19T03:43:49;98472.81;;;20.31;100.00
47815;BME280;33579;50.058;18.130;2023-09-19T03:44:51;98475.09;;;20.34;100.00
47815;BME280;33579;50.058;18.130;2023-09-19T03:45:53;98469.59;;;20.22;100.00
47815;BME280;33579;50.058;18.130;2023-09-19T03:46:56;98475.97;;;20.21;100.00
47815;BME280;33579;50.058;18.130;2023-09-19T03:47:58;98474.34;;;20.20;100.00
47815;BME280;33579;50.058;18.130;2023-09-19T03:48:59;98479.69;;;20.20;100.00
47815;BME280;33579;50.058;18.130;2023-09-19T03:50:02;98480.09;;;20.17;100.00
47815;BME280;33579;50.058;18.130;2023-09-19T03:51:04;98476.19;;;20.19;100.00
47815;BME280;33579;50.058;18.130;2023-09-19T03:52:05;98474.94;;;20.22;100.00
47815;BME280;33579;50.058;18.130;2023-09-19T03:53:07;98476.56;;;20.23;100.00
47815;BME280;33579;50.058;18.130;2023-09-19T03:54:09;98473.69;;;20.25;100.00
47815;BME280;33579;50.058;18.130;2023-09-19T03:55:11;98474.88;;;20.29;100.00
47815;BME280;33579;50.058;18.130;2023-09-19T03:56:13;98473.44;;;20.33;100.00
47815;BME280;33579;50.058;18.130;2023-09-19T03:57:15;98475.69;;;20.36;100.00
47815;BME280;33579;50.058;18.130;2023-09-19T03:58:16;98473.59;;;20.38;100.00
47815;BME280;33579;50.058;18.130;2023-09-19T03:59:18;98475.47;;;20.38;100.00
47815;BME280;33579;50.058;18.130;2023-09-19T04:00:20;98471.41;;;20.28;100.00
47815;BME280;33579;50.058;18.130;2023-09-19T04:01:21;98472.06;;;20.24;100.00
47815;BME280;33579;50.058;18.130;2023-09-19T04:02:23;98473.69;;;20.25;100.00
47815;BME280;33579;50.058;18.130;2023-09-19T04:03:25;98477.59;;;20.22;100.00
47815;BME280;33579;50.058;18.130;2023-09-19T04:04:27;98475.38;;;20.19;100.00
47815;BME280;33579;50.058;18.130;2023-09-19T04:05:29;98474.16;;;20.15;100.00
47815;BME280;33579;50.058;18.130;2023-09-19T04:06:30;98475.81;;;20.16;100.00
47815;BME280;33579;50.058;18.130;2023-09-19T04:07:32;98481.91;;;20.23;100.00
47815;BME280;33579;50.058;18.130;2023-09-19T04:08:34;98478.63;;;20.21;100.00
47815;BME280;33579;50.058;18.130;2023-09-19T04:09:36;98468.56;;;20.23;100.00
47815;BME280;33579;50.058;18.130;2023-09-19T04:10:37;98469.38;;;20.24;100.00
47815;BME280;33579;50.058;18.130;2023-09-19T04:11:39;98479.03;;;20.25;100.00
47815;BME280;33579;50.058;18.130;2023-09-19T04:12:40;98475.16;;;20.20;100.00
47815;BME280;33579;50.058;18.130;2023-09-19T04:13:42;98474.94;;;20.22;100.00
47815;BME280;33579;50.058;18.130;2023-09-19T04:14:44;98480.53;;;20.14;100.00
47815;BME280;33579;50.058;18.130;2023-09-19T04:15:46;98487.13;;;20.11;100.00
47815;BME280;33579;50.058;18.130;2023-09-19T04:16:47;98489.34;;;20.14;100.00
47815;BME280;33579;50.058;18.130;2023-09-19T04:17:50;98486.69;;;20.14;100.00
47815;BME280;33579;50.058;18.130;2023-09-19T04:18:51;98483.22;;;20.14;100.00
47815;BME280;33579;50.058;18.130;2023-09-19T04:19:53;98490.50;;;19.93;100.00
47815;BME280;33579;50.058;18.130;2023-09-19T04:20:55;98489.84;;;19.91;100.00
47815;BME280;33579;50.058;18.130;2023-09-19T04:21:56;98484.13;;;19.87;100.00
47815;BME280;33579;50.058;18.130;2023-09-19T04:22:58;98491.53;;;19.85;100.00
47815;BME280;33579;50.058;18.130;2023-09-19T04:23:59;98492.75;;;19.83;100.00
47815;BME280;33579;50.058;18.130;2023-09-19T04:25:01;98494.00;;;19.73;100.00
47815;BME280;33579;50.058;18.130;2023-09-19T04:26:03;98497.94;;;19.71;100.00
47815;BME280;33579;50.058;18.130;2023-09-19T04:27:05;98489.72;;;19.72;100.00
47815;BME280;33579;50.058;18.130;2023-09-19T04:28:07;98496.50;;;19.75;100.00
47815;BME280;33579;50.058;18.130;2023-09-19T04:29:08;98496.31;;;19.63;100.00
47815;BME280;33579;50.058;18.130;2023-09-19T04:30:10;98499.19;;;19.61;100.00
47815;BME280;33579;50.058;18.130;2023-09-19T04:31:12;98496.56;;;19.55;100.00
47815;BME280;33579;50.058;18.130;2023-09-19T04:32:13;98504.16;;;19.51;100.00
47815;BME280;33579;50.058;18.130;2023-09-19T04:33:15;98508.06;;;19.42;100.00
47815;BME280;33579;50.058;18.130;2023-09-19T04:34:17;98504.81;;;19.33;100.00
47815;BME280;33579;50.058;18.130;2023-09-19T04:35:18;98515.66;;;19.24;100.00
47815;BME280;33579;50.058;18.130;2023-09-19T04:36:20;98504.63;;;19.14;100.00
47815;BME280;33579;50.058;18.130;2023-09-19T04:37:37;98510.34;;;19.11;100.00
47815;BME280;33579;50.058;18.130;2023-09-19T04:38:39;98512.41;;;19.09;100.00
47815;BME280;33579;50.058;18.130;2023-09-19T04:39:40;98517.13;;;19.14;100.00
47815;BME280;33579;50.058;18.130;2023-09-19T04:40:42;98510.97;;;19.06;100.00
47815;BME280;33579;50.058;18.130;2023-09-19T04:41:44;98517.31;;;18.99;100.00
47815;BME280;33579;50.058;18.130;2023-09-19T04:42:45;98515.25;;;18.94;100.00
47815;BME280;33579;50.058;18.130;2023-09-19T04:43:47;98519.16;;;18.98;100.00
47815;BME280;33579;50.058;18.130;2023-09-19T04:44:48;98520.19;;;18.97;100.00
47815;BME280;33579;50.058;18.130;2023-09-19T04:45:50;98521.22;;;18.89;100.00
47815;BME280;33579;50.058;18.130;2023-09-19T04:46:52;98524.50;;;18.78;100.00
47815;BME280;33579;50.058;18.130;2023-09-19T04:47:53;98513.00;;;18.64;100.00
47815;BME280;33579;50.058;18.130;2023-09-19T04:48:55;98520.13;;;18.57;100.00
47815;BME280;33579;50.058;18.130;2023-09-19T04:49:57;98521.56;;;18.52;100.00
47815;BME280;33579;50.058;18.130;2023-09-19T04:50:58;98528.53;;;18.47;100.00
47815;BME280;33579;50.058;18.130;2023-09-19T04:52:00;98525.25;;;18.45;100.00
47815;BME280;33579;50.058;18.130;2023-09-19T04:53:02;98534.88;;;18.46;100.00
47815;BME280;33579;50.058;18.130;2023-09-19T04:54:03;98539.16;;;18.40;100.00
47815;BME280;33579;50.058;18.130;2023-09-19T04:55:05;98539.34;;;18.38;100.00
47815;BME280;33579;50.058;18.130;2023-09-19T04:56:07;98543.88;;;18.45;100.00
47815;BME280;33579;50.058;18.130;2023-09-19T04:57:09;98541.66;;;18.48;100.00
47815;BME280;33579;50.058;18.130;2023-09-19T04:58:10;98543.28;;;18.43;100.00
47815;BME280;33579;50.058;18.130;2023-09-19T04:59:12;98544.06;;;18.36;100.00
47815;BME280;33579;50.058;18.130;2023-09-19T05:00:15;98538.75;;;18.36;100.00
47815;BME280;33579;50.058;18.130;2023-09-19T05:01:17;98555.56;;;18.37;100.00
47815;BME280;33579;50.058;18.130;2023-09-19T05:02:19;98551.63;;;18.33;100.00
47815;BME280;33579;50.058;18.130;2023-09-19T05:03:21;98552.28;;;18.35;100.00
47815;BME280;33579;50.058;18.130;2023-09-19T05:04:22;98554.50;;;18.31;100.00
47815;BME280;33579;50.058;18.130;2023-09-19T05:05:24;98547.53;;;18.30;100.00
47815;BME280;33579;50.058;18.130;2023-09-19T05:06:26;98553.91;;;18.36;100.00
47815;BME280;33579;50.058;18.130;2023-09-19T05:07:27;98552.88;;;18.37;100.00
47815;BME280;33579;50.058;18.130;2023-09-19T05:08:29;98543.28;;;18.43;100.00
47815;BME280;33579;50.058;18.130;2023-09-19T05:09:31;98540.00;;;18.47;100.00
47815;BME280;33579;50.058;18.130;2023-09-19T05:10:32;98541.25;;;18.51;100.00
47815;BME280;33579;50.058;18.130;2023-09-19T05:11:34;98548.63;;;18.56;100.00
47815;BME280;33579;50.058;18.130;2023-09-19T05:12:36;98541.88;;;18.60;100.00
47815;BME280;33579;50.058;18.130;2023-09-19T05:13:37;98536.13;;;18.63;100.00
47815;BME280;33579;50.058;18.130;2023-09-19T05:14:39;98538.41;;;18.66;100.00
47815;BME280;33579;50.058;18.130;2023-09-19T05:15:41;98531.66;;;18.71;100.00
47815;BME280;33579;50.058;18.130;2023-09-19T05:16:43;98550.72;;;18.81;100.00
47815;BME280;33579;50.058;18.130;2023-09-19T05:17:49;98541.91;;;18.87;100.00
47815;BME280;33579;50.058;18.130;2023-09-19T05:18:55;98542.72;;;18.94;100.00
47815;BME280;33579;50.058;18.130;2023-09-19T05:19:57;98543.16;;;18.98;100.00
47815;BME280;33579;50.058;18.130;2023-09-19T05:21:02;98544.19;;;18.97;100.00
47815;BME280;33579;50.058;18.130;2023-09-19T05:22:03;98545.41;;;18.94;100.00
47815;BME280;33579;50.058;18.130;2023-09-19T05:23:06;98543.16;;;18.91;100.00
47815;BME280;33579;50.058;18.130;2023-09-19T05:24:08;98534.75;;;18.94;100.00
47815;BME280;33579;50.058;18.130;2023-09-19T05:25:12;98529.22;;;18.89;100.00
47815;BME280;33579;50.058;18.130;2023-09-19T05:26:13;98539.03;;;18.95;100.00
47815;BME280;33579;50.058;18.130;2023-09-19T05:27:15;98534.31;;;18.98;100.00
47815;BME280;33579;50.058;18.130;2023-09-19T05:28:17;98533.94;;;19.01;100.00
47815;BME280;33579;50.058;18.130;2023-09-19T05:29:18;98537.84;;;19.05;100.00
47815;BME280;33579;50.058;18.130;2023-09-19T05:30:20;98544.22;;;19.10;100.00
47815;BME280;33579;50.058;18.130;2023-09-19T05:31:21;98542.16;;;19.13;100.00
47815;BME280;33579;50.058;18.130;2023-09-19T05:32:23;98550.34;;;19.18;100.00
47815;BME280;33579;50.058;18.130;2023-09-19T05:33:25;98543.38;;;19.10;100.00
47815;BME280;33579;50.058;18.130;2023-09-19T05:34:26;98558.13;;;18.99;100.00
47815;BME280;33579;50.058;18.130;2023-09-19T05:35:28;98570.00;;;18.83;100.00
47815;BME280;33579;50.058;18.130;2023-09-19T05:36:30;98562.16;;;18.68;100.00
47815;BME280;33579;50.058;18.130;2023-09-19T05:37:32;98567.91;;;18.65;100.00
47815;BME280;33579;50.058;18.130;2023-09-19T05:38:33;98576.28;;;18.55;100.00
47815;BME280;33579;50.058;18.130;2023-09-19T05:39:35;98570.72;;;18.50;100.00